Time;durP1;ratioP1;P1;durP2;ratioP2;P2;SDS_P1;SDS_P2;PMS_P1;PMS_P2;Temp;Humidity;BMP_temperature;BMP_pressure;BME280_temperature;BME280_humidity;BME280_pressure;Samples;Min_cycle;Max_cycle;Signal;HPM_P1;HPM_P2
2022/04/03 00:00:56;;;;;;;8.35;3.10;;;-0.70;99.90;;;;;;4933026;28;219402;-76
2022/04/03 00:03:22;;;;;;;10.73;3.60;;;-0.60;99.90;;;;;;4946529;28;20047;-76
2022/04/03 00:05:48;;;;;;;11.25;3.03;;;-0.60;99.90;;;;;;4903238;28;222118;-76
2022/04/03 00:08:15;;;;;;;8.95;3.22;;;-0.60;99.90;;;;;;4929965;28;20154;-76
2022/04/03 00:10:45;;;;;;;9.90;3.40;;;-0.60;99.90;;;;;;4926074;28;20059;-76
2022/04/03 00:13:11;;;;;;;9.43;3.25;;;-0.60;99.90;;;;;;4942744;28;20048;-76
2022/04/03 00:15:41;;;;;;;9.82;3.67;;;-0.50;99.90;;;;;;4906981;28;151748;-76
2022/04/03 00:18:08;;;;;;;11.13;4.05;;;-0.50;99.90;;;;;;4951988;28;20135;-76
2022/04/03 00:20:39;;;;;;;13.43;4.32;;;-0.50;99.90;;;;;;4906523;28;20046;-76
2022/04/03 00:23:06;;;;;;;14.70;4.60;;;-0.50;99.90;;;;;;4926031;29;20059;-76
2022/04/03 00:25:33;;;;;;;13.27;4.30;;;-0.50;99.90;;;;;;4918407;28;86766;-76
2022/04/03 00:28:00;;;;;;;10.15;4.05;;;-0.50;99.90;;;;;;4929907;28;20058;-76
2022/04/03 00:30:27;;;;;;;9.68;3.88;;;-0.50;99.90;;;;;;4931081;28;114023;-76
2022/04/03 00:32:53;;;;;;;13.65;4.40;;;-0.50;99.90;;;;;;4953599;28;20035;-76
2022/04/03 00:35:20;;;;;;;13.20;4.53;;;-0.40;99.90;;;;;;4948842;28;79255;-76
2022/04/03 00:37:46;;;;;;;10.15;3.90;;;-0.40;99.90;;;;;;4938505;28;20542;-76
2022/04/03 00:40:14;;;;;;;10.68;4.28;;;-0.40;99.90;;;;;;4931660;28;168516;-76
2022/04/03 00:42:41;;;;;;;10.82;4.40;;;-0.40;99.90;;;;;;4952784;28;20199;-76
2022/04/03 00:45:07;;;;;;;11.23;4.13;;;-0.30;99.90;;;;;;4955208;28;195458;-76
2022/04/03 00:47:34;;;;;;;12.10;4.88;;;-0.30;99.90;;;;;;4910071;28;20051;-76
2022/04/03 00:50:00;;;;;;;13.43;4.70;;;-0.30;99.90;;;;;;4946010;28;140448;-77
2022/04/03 00:52:27;;;;;;;10.50;4.93;;;-0.30;99.90;;;;;;4929570;28;20057;-76
2022/04/03 00:54:53;;;;;;;12.68;4.57;;;-0.20;99.90;;;;;;4959862;28;20058;-76
2022/04/03 00:57:22;;;;;;;13.48;4.55;;;-0.20;99.90;;;;;;4930406;28;20520;-76
2022/04/03 00:59:49;;;;;;;12.80;4.53;;;-0.20;99.90;;;;;;4968436;28;83524;-76
2022/04/03 01:02:16;;;;;;;12.00;5.00;;;-0.10;99.90;;;;;;4923011;28;20046;-76
2022/04/03 01:04:43;;;;;;;12.43;4.47;;;-0.10;99.90;;;;;;4924966;28;177299;-76
2022/04/03 01:07:09;;;;;;;11.65;4.47;;;-0.10;99.90;;;;;;4920642;28;20047;-76
2022/04/03 01:09:36;;;;;;;11.35;4.72;;;0.00;99.90;;;;;;4937324;28;171882;-76
2022/04/03 01:12:04;;;;;;;11.80;4.82;;;0.00;99.90;;;;;;4926842;28;20051;-76
2022/04/03 01:14:37;;;;;;;12.18;4.60;;;0.00;99.90;;;;;;4942374;28;92384;-76
2022/04/03 01:17:05;;;;;;;10.23;4.47;;;0.00;99.90;;;;;;4931538;28;20050;-77
2022/04/03 01:19:31;;;;;;;13.68;5.25;;;0.00;99.90;;;;;;4934041;28;226587;-77
2022/04/03 01:21:58;;;;;;;10.48;4.60;;;0.00;99.90;;;;;;4936044;28;20404;-77
2022/04/03 01:24:25;;;;;;;11.75;5.15;;;-0.10;99.90;;;;;;4934634;28;67749;-76
2022/04/03 01:26:52;;;;;;;13.40;5.53;;;-0.10;99.90;;;;;;4933789;28;20043;-76
2022/04/03 01:29:19;;;;;;;11.75;4.95;;;-0.10;99.90;;;;;;4934337;28;58225;-76
2022/04/03 01:31:46;;;;;;;12.20;5.45;;;-0.10;99.90;;;;;;4945597;28;20054;-76
2022/04/03 01:34:14;;;;;;;11.63;5.07;;;-0.20;99.90;;;;;;4941125;28;205875;-77
2022/04/03 01:36:40;;;;;;;15.93;5.30;;;-0.20;99.90;;;;;;4935838;28;20357;-76
2022/04/03 01:39:06;;;;;;;14.55;5.15;;;-0.20;99.90;;;;;;4934349;28;270864;-76
2022/04/03 01:41:32;;;;;;;13.05;5.22;;;-0.20;99.90;;;;;;4956003;28;20053;-76
2022/04/03 01:43:58;;;;;;;11.77;4.90;;;-0.20;99.90;;;;;;4940866;28;257210;-76
2022/04/03 01:46:24;;;;;;;14.13;5.45;;;-0.20;99.90;;;;;;4933640;28;20476;-76
2022/04/03 01:48:50;;;;;;;11.88;5.18;;;-0.30;99.90;;;;;;4930086;28;280496;-76
2022/04/03 01:51:17;;;;;;;13.27;5.25;;;-0.30;99.90;;;;;;4929230;28;20538;-76
2022/04/03 01:53:43;;;;;;;13.68;5.35;;;-0.30;99.90;;;;;;4955269;28;20062;-76
2022/04/03 01:56:09;;;;;;;11.63;5.13;;;-0.30;99.90;;;;;;4929747;28;41107;-76
2022/04/03 01:58:35;;;;;;;12.52;5.22;;;-0.30;99.90;;;;;;4936347;28;20066;-76
2022/04/03 02:01:04;;;;;;;10.88;4.93;;;-0.30;99.90;;;;;;4935204;28;203827;-76
2022/04/03 02:03:30;;;;;;;11.90;4.93;;;-0.30;99.90;;;;;;4944661;28;20070;-76
2022/04/03 02:05:57;;;;;;;11.57;5.18;;;-0.40;99.90;;;;;;4911272;28;128113;-76
2022/04/03 02:08:25;;;;;;;12.57;4.65;;;-0.40;99.90;;;;;;4943620;28;20055;-76
2022/04/03 02:10:52;;;;;;;11.40;4.70;;;-0.40;99.90;;;;;;4910948;28;149562;-76
2022/04/03 02:13:18;;;;;;;11.32;4.80;;;-0.40;99.90;;;;;;4959941;28;20052;-76
2022/04/03 02:15:45;;;;;;;10.75;4.50;;;-0.40;99.90;;;;;;4942863;28;203742;-76
2022/04/03 02:18:12;;;;;;;14.40;4.97;;;-0.40;99.90;;;;;;4940999;28;20055;-76
2022/04/03 02:20:39;;;;;;;11.57;4.93;;;-0.40;99.90;;;;;;4922508;28;187476;-76
2022/04/03 02:23:06;;;;;;;11.43;5.03;;;-0.50;99.90;;;;;;4949250;28;20071;-76
2022/04/03 02:25:32;;;;;;;13.48;4.75;;;-0.50;99.90;;;;;;4933248;28;152210;-76
2022/04/03 02:28:01;;;;;;;14.50;4.75;;;-0.40;99.90;;;;;;4933409;28;20063;-76
2022/04/03 02:30:27;;;;;;;12.25;4.90;;;-0.50;99.90;;;;;;4944050;28;20623;-76
2022/04/03 02:32:54;;;;;;;11.07;4.63;;;-0.50;99.90;;;;;;4932540;28;20062;-76
2022/04/03 02:35:20;;;;;;;11.23;5.00;;;-0.50;99.90;;;;;;4931602;28;226436;-76
2022/04/03 02:37:46;;;;;;;13.02;5.38;;;-0.40;99.90;;;;;;4950690;28;20069;-75
2022/04/03 02:40:15;;;;;;;13.75;5.70;;;-0.40;99.90;;;;;;4942302;28;37160;-76
2022/04/03 02:42:42;;;;;;;12.77;5.22;;;-0.40;99.90;;;;;;4950548;28;20057;-76
2022/04/03 02:45:10;;;;;;;12.75;4.63;;;-0.40;99.90;;;;;;4954228;28;189537;-76
2022/04/03 02:47:37;;;;;;;16.30;5.18;;;-0.40;99.90;;;;;;4910872;28;20055;-76
2022/04/03 02:50:04;;;;;;;10.43;4.90;;;-0.40;99.90;;;;;;4948026;28;33836;-76
2022/04/03 02:52:30;;;;;;;13.48;4.80;;;-0.40;99.90;;;;;;4927070;28;20054;-76
2022/04/03 02:54:57;;;;;;;11.88;4.60;;;-0.40;99.90;;;;;;4946562;28;96864;-76
2022/04/03 02:57:23;;;;;;;11.48;4.63;;;-0.40;99.90;;;;;;4927222;28;20051;-76
2022/04/03 02:59:50;;;;;;;12.35;5.20;;;-0.40;99.90;;;;;;4933544;28;180943;-76
2022/04/03 03:02:16;;;;;;;12.73;5.18;;;-0.30;99.90;;;;;;4935444;28;20054;-76
2022/04/03 03:04:42;;;;;;;12.18;4.78;;;-0.30;99.90;;;;;;4925849;28;234293;-76
2022/04/03 03:07:09;;;;;;;10.18;4.45;;;-0.30;99.90;;;;;;4926306;28;20057;-76
2022/04/03 03:09:35;;;;;;;11.45;5.22;;;-0.20;99.90;;;;;;4939553;28;175463;-76
2022/04/03 03:12:02;;;;;;;11.10;4.85;;;-0.20;99.90;;;;;;4904043;28;20520;-76
2022/04/03 03:14:28;;;;;;;11.23;4.70;;;-0.10;99.90;;;;;;4972405;28;77623;-76
2022/04/03 03:16:55;;;;;;;10.82;4.43;;;-0.10;99.90;;;;;;4948420;28;20039;-75
2022/04/03 03:19:21;;;;;;;10.52;4.78;;;0.00;99.90;;;;;;4969823;28;77247;-76
2022/04/03 03:21:48;;;;;;;10.48;4.75;;;0.00;99.90;;;;;;4956930;28;20050;-76
2022/04/03 03:24:14;;;;;;;11.57;4.80;;;0.00;99.90;;;;;;4945903;28;84455;-76
2022/04/03 03:26:41;;;;;;;10.18;4.60;;;0.10;99.90;;;;;;4946529;28;20408;-76
2022/04/03 03:29:08;;;;;;;10.60;4.68;;;0.10;99.90;;;;;;4928861;28;272113;-76
2022/04/03 03:31:35;;;;;;;11.80;4.53;;;0.10;99.90;;;;;;4929428;28;20049;-76
2022/04/03 03:34:01;;;;;;;12.73;4.60;;;0.20;99.90;;;;;;4921724;28;260579;-75
2022/04/03 03:36:27;;;;;;;11.18;4.70;;;0.20;99.90;;;;;;4947134;28;20130;-76
2022/04/03 03:38:54;;;;;;;13.52;4.88;;;0.20;99.90;;;;;;4958067;28;252128;-76
2022/04/03 03:41:20;;;;;;;12.35;4.45;;;0.30;99.90;;;;;;4933649;28;20039;-76
2022/04/03 03:43:47;;;;;;;14.10;5.15;;;0.30;99.90;;;;;;4942687;28;20055;-76
2022/04/03 03:46:13;;;;;;;11.40;4.53;;;0.30;99.90;;;;;;4919299;28;222852;-76
2022/04/03 03:48:40;;;;;;;9.60;4.70;;;0.30;99.90;;;;;;4959677;28;20047;-76
2022/04/03 03:51:07;;;;;;;11.95;4.47;;;0.30;99.90;;;;;;4923598;28;249580;-76
2022/04/03 03:53:33;;;;;;;11.40;5.03;;;0.40;99.90;;;;;;4959120;28;20058;-76
2022/04/03 03:55:59;;;;;;;10.55;4.90;;;0.40;99.90;;;;;;4909785;28;227203;-76
2022/04/03 03:58:25;;;;;;;12.00;4.75;;;0.40;99.90;;;;;;4953673;28;20058;-76
2022/04/03 04:00:51;;;;;;;11.93;4.45;;;0.40;99.90;;;;;;4918496;28;133716;-76
2022/04/03 04:03:17;;;;;;;10.35;4.25;;;0.50;99.90;;;;;;4968088;28;20651;-76
2022/04/03 04:05:43;;;;;;;11.13;4.40;;;0.50;99.90;;;;;;4922745;28;155642;-76
2022/04/03 04:08:09;;;;;;;11.93;4.63;;;0.50;99.90;;;;;;4929643;28;20051;-76
2022/04/03 04:10:36;;;;;;;12.40;4.20;;;0.60;99.90;;;;;;4923174;28;36848;-76
2022/04/03 04:13:02;;;;;;;11.52;4.30;;;0.60;99.90;;;;;;4945289;28;20070;-76
2022/04/03 04:15:30;;;;;;;9.57;3.90;;;0.60;99.90;;;;;;4914330;28;258234;-75
2022/04/03 04:17:56;;;;;;;9.90;4.07;;;0.70;99.90;;;;;;4948215;28;20046;-76
2022/04/03 04:20:23;;;;;;;10.52;4.00;;;0.70;99.90;;;;;;4946615;28;223108;-76
2022/04/03 04:22:52;;;;;;;11.32;3.75;;;0.70;99.90;;;;;;4941390;28;20115;-76
2022/04/03 04:25:19;;;;;;;9.57;3.65;;;0.80;99.90;;;;;;4940611;28;263753;-76
2022/04/03 04:27:46;;;;;;;10.73;3.88;;;0.70;99.90;;;;;;4953606;28;20042;-76
2022/04/03 04:30:14;;;;;;;9.90;3.63;;;0.60;99.90;;;;;;4965286;28;154751;-76
2022/04/03 04:32:41;;;;;;;14.63;4.13;;;0.60;99.90;;;;;;4929455;28;20046;-76
2022/04/03 04:35:08;;;;;;;10.15;3.83;;;0.50;99.90;;;;;;4949277;28;152845;-77
2022/04/03 04:37:34;;;;;;;9.63;3.80;;;0.50;99.90;;;;;;4918703;28;20047;-76
2022/04/03 04:40:01;;;;;;;14.40;4.25;;;0.50;99.90;;;;;;4954028;28;177622;-76
2022/04/03 04:42:28;;;;;;;11.77;3.95;;;0.40;99.90;;;;;;4953259;28;20111;-77
2022/04/03 04:44:54;;;;;;;9.02;3.55;;;0.40;99.90;;;;;;4955296;28;260728;-75
2022/04/03 04:47:20;;;;;;;9.45;4.10;;;0.30;99.90;;;;;;4947336;28;20059;-77
2022/04/03 04:49:48;;;;;;;9.95;3.85;;;0.20;99.90;;;;;;4968236;28;44559;-75
2022/04/03 04:52:14;;;;;;;9.35;3.75;;;0.20;99.90;;;;;;4936944;28;20358;-75
2022/04/03 04:54:40;;;;;;;9.63;4.03;;;0.20;99.90;;;;;;4949860;28;260964;-76
2022/04/03 04:57:08;;;;;;;10.77;4.35;;;0.10;99.90;;;;;;4941873;28;20039;-76
2022/04/03 04:59:34;;;;;;;10.57;4.63;;;0.10;99.90;;;;;;4960349;28;118715;-77
2022/04/03 05:02:01;;;;;;;10.00;4.00;;;0.10;99.90;;;;;;4932659;28;20066;-76
2022/04/03 05:04:28;;;;;;;11.88;4.25;;;0.10;99.90;;;;;;4931834;28;199302;-76
2022/04/03 05:06:54;;;;;;;9.90;4.50;;;0.10;99.90;;;;;;4918497;28;20054;-77
2022/04/03 05:09:21;;;;;;;10.10;4.40;;;0.20;99.90;;;;;;4955962;28;94294;-77
2022/04/03 05:11:48;;;;;;;12.57;4.45;;;0.20;99.90;;;;;;4941992;28;20644;-76
2022/04/03 05:14:14;;;;;;;11.00;4.35;;;0.20;99.90;;;;;;4971756;28;185403;-76
2022/04/03 05:16:41;;;;;;;10.07;4.68;;;0.20;99.90;;;;;;4960311;28;20073;-76
2022/04/03 05:19:11;;;;;;;12.87;4.47;;;0.30;99.90;;;;;;4944802;28;265191;-76
2022/04/03 05:21:40;;;;;;;9.70;4.30;;;0.30;99.90;;;;;;4921517;28;20043;-76
2022/04/03 05:24:06;;;;;;;10.82;4.55;;;0.30;99.90;;;;;;4941748;28;258370;-75
2022/04/03 05:26:32;;;;;;;9.90;4.35;;;0.30;99.90;;;;;;4946094;28;20042;-76
2022/04/03 05:28:58;;;;;;;10.50;4.50;;;0.20;99.90;;;;;;4942252;28;266984;-76
2022/04/03 05:31:26;;;;;;;12.68;4.35;;;0.20;99.90;;;;;;4943946;28;20404;-76
2022/04/03 05:33:55;;;;;;;11.35;4.53;;;0.20;99.90;;;;;;4936959;28;269131;-75
2022/04/03 05:36:23;;;;;;;10.00;4.50;;;0.20;99.90;;;;;;4941201;28;20058;-75
2022/04/03 05:38:49;;;;;;;10.05;4.60;;;0.20;99.90;;;;;;4966285;28;275417;-76
2022/04/03 05:41:15;;;;;;;12.05;4.70;;;0.20;99.90;;;;;;4939937;28;20050;-76
2022/04/03 05:43:42;;;;;;;11.77;4.80;;;0.20;99.90;;;;;;4953144;28;20043;-75
2022/04/03 05:46:10;;;;;;;11.00;4.60;;;0.30;99.90;;;;;;4939802;28;276669;-76
2022/04/03 05:48:36;;;;;;;9.93;4.00;;;0.20;99.90;;;;;;4961826;28;20066;-76
2022/04/03 05:51:03;;;;;;;10.43;4.50;;;0.30;99.90;;;;;;4917239;28;253686;-76
2022/04/03 05:53:29;;;;;;;9.98;4.20;;;0.30;99.90;;;;;;4940892;28;20162;-75
2022/04/03 05:55:55;;;;;;;12.18;4.30;;;0.30;99.90;;;;;;4918858;28;212760;-75
2022/04/03 05:58:21;;;;;;;13.90;4.82;;;0.40;99.90;;;;;;4963827;28;20062;-76
2022/04/03 06:00:48;;;;;;;12.57;4.97;;;0.40;99.90;;;;;;4921951;28;266560;-76
2022/04/03 06:03:14;;;;;;;10.85;4.57;;;0.50;99.90;;;;;;4958793;28;20374;-76
2022/04/03 06:05:40;;;;;;;11.07;4.65;;;0.60;99.90;;;;;;4910441;28;112561;-75
2022/04/03 06:08:06;;;;;;;10.18;4.28;;;0.70;99.90;;;;;;4970858;28;20489;-76
2022/04/03 06:10:34;;;;;;;11.05;4.50;;;0.70;99.90;;;;;;4913149;28;164830;-75
2022/04/03 06:13:06;;;;;;;9.85;4.20;;;0.80;99.90;;;;;;4965078;28;20497;-76
2022/04/03 06:15:34;;;;;;;11.05;4.28;;;0.80;99.90;;;;;;4939699;28;253954;-76
2022/04/03 06:18:06;;;;;;;11.35;3.90;;;0.80;99.90;;;;;;4965173;28;20055;-75
2022/04/03 06:20:34;;;;;;;10.25;3.85;;;0.80;99.90;;;;;;4935759;28;199075;-76
2022/04/03 06:23:01;;;;;;;9.18;3.72;;;0.90;99.90;;;;;;4957698;28;20058;-76
2022/04/03 06:25:27;;;;;;;10.20;3.90;;;1.10;99.90;;;;;;4920555;28;220614;-76
2022/04/03 06:27:54;;;;;;;11.65;3.80;;;1.50;99.90;;;;;;4960906;28;20078;-75
2022/04/03 06:30:21;;;;;;;10.25;3.60;;;2.10;99.90;;;;;;4943105;28;199426;-76
2022/04/03 06:32:48;;;;;;;10.23;3.53;;;2.60;99.90;;;;;;4955067;28;20043;-75
2022/04/03 06:35:14;;;;;;;9.73;3.08;;;3.10;99.90;;;;;;4950512;28;123994;-76
2022/04/03 06:37:41;;;;;;;10.05;3.22;;;3.10;99.90;;;;;;4925093;28;20534;-77
2022/04/03 06:40:08;;;;;;;10.02;3.13;;;3.40;99.90;;;;;;4948275;28;135166;-77
2022/04/03 06:42:34;;;;;;;9.55;2.88;;;3.80;99.90;;;;;;4928653;28;20039;-77
2022/04/03 06:45:01;;;;;;;11.32;3.28;;;4.30;99.90;;;;;;4956045;28;52695;-77
2022/04/03 06:47:29;;;;;;;9.55;2.70;;;4.30;99.90;;;;;;4923527;28;20079;-77
2022/04/03 06:49:55;;;;;;;8.60;2.70;;;4.30;99.90;;;;;;4968561;28;198848;-77
2022/04/03 06:52:22;;;;;;;8.95;2.70;;;4.10;99.90;;;;;;4936512;28;20443;-77
2022/04/03 06:54:49;;;;;;;8.02;2.70;;;4.10;99.90;;;;;;4934310;28;129046;-77
2022/04/03 06:57:16;;;;;;;9.68;2.67;;;4.30;99.90;;;;;;4940915;28;20054;-77
2022/04/03 06:59:43;;;;;;;8.48;2.53;;;4.60;99.90;;;;;;4945074;28;115682;-77
2022/04/03 07:02:09;;;;;;;8.07;2.30;;;4.90;99.90;;;;;;4921586;28;20043;-77
2022/04/03 07:04:36;;;;;;;8.85;2.33;;;5.30;99.90;;;;;;4955133;28;205332;-77
2022/04/03 07:07:03;;;;;;;10.27;3.00;;;5.60;99.90;;;;;;4933668;28;20114;-78
2022/04/03 07:09:29;;;;;;;12.55;3.40;;;5.90;99.90;;;;;;4939197;28;220330;-78
2022/04/03 07:11:55;;;;;;;10.88;3.40;;;6.30;99.90;;;;;;4927479;28;20039;-76
2022/04/03 07:14:22;;;;;;;11.63;2.97;;;6.60;99.90;;;;;;4945255;28;24067;-76
2022/04/03 07:16:49;;;;;;;9.40;2.17;;;6.90;99.90;;;;;;4936840;28;20055;-76
2022/04/03 07:19:15;;;;;;;7.30;1.90;;;7.10;99.90;;;;;;4974078;28;29448;-76
2022/04/03 07:21:41;;;;;;;9.02;2.00;;;7.10;99.90;;;;;;4947718;28;20537;-75
2022/04/03 07:24:08;;;;;;;9.77;1.83;;;7.20;99.90;;;;;;4923406;28;291159;-76
2022/04/03 07:26:34;;;;;;;7.22;1.70;;;7.20;99.90;;;;;;4935222;28;20043;-76
2022/04/03 07:29:00;;;;;;;7.78;1.70;;;7.40;99.90;;;;;;4930923;28;270569;-76
2022/04/03 07:31:28;;;;;;;7.13;1.50;;;7.50;99.90;;;;;;4936324;28;20073;-76
2022/04/03 07:33:55;;;;;;;8.45;1.63;;;7.60;99.90;;;;;;4959006;28;269965;-76
2022/04/03 07:36:21;;;;;;;8.13;1.65;;;7.40;99.90;;;;;;4924571;28;20164;-75
2022/04/03 07:38:47;;;;;;;6.93;1.40;;;7.30;99.90;;;;;;4935628;28;20424;-77
2022/04/03 07:41:14;;;;;;;7.28;1.63;;;7.10;99.90;;;;;;4932609;28;20054;-71
2022/04/03 07:43:40;;;;;;;9.00;1.40;;;7.10;99.90;;;;;;4943459;28;20051;-76
2022/04/03 07:46:07;;;;;;;6.45;1.50;;;6.90;99.90;;;;;;4921143;28;246803;-77
2022/04/03 07:48:33;;;;;;;8.70;2.20;;;6.90;99.90;;;;;;4965195;28;20070;-78
2022/04/03 07:50:59;;;;;;;8.30;1.40;;;7.00;99.90;;;;;;4924088;28;201735;-78
2022/04/03 07:53:25;;;;;;;8.48;1.67;;;7.30;99.90;;;;;;4951952;28;20417;-78
2022/04/03 07:55:51;;;;;;;7.07;1.20;;;7.60;99.90;;;;;;4936457;28;63502;-78
2022/04/03 07:58:18;;;;;;;8.90;1.50;;;7.90;99.90;;;;;;4966874;28;20401;-79
2022/04/03 08:00:44;;;;;;;9.00;1.50;;;8.10;99.90;;;;;;4925345;28;138304;-79
2022/04/03 08:03:11;;;;;;;8.75;1.70;;;8.30;99.90;;;;;;4935742;28;20066;-79
2022/04/03 08:05:37;;;;;;;8.70;1.30;;;8.40;99.90;;;;;;4919119;28;148766;-77
2022/04/03 08:08:03;;;;;;;6.28;1.20;;;7.90;99.90;;;;;;4938118;28;20046;-78
2022/04/03 08:10:29;;;;;;;11.20;3.00;;;7.70;99.90;;;;;;4927954;28;76342;-78
2022/04/03 08:12:55;;;;;;;10.15;1.90;;;8.00;99.90;;;;;;4951839;28;20406;-77
2022/04/03 08:15:22;;;;;;;9.23;2.55;;;8.70;99.90;;;;;;4956892;28;27090;-77
2022/04/03 08:17:48;;;;;;;8.77;1.52;;;8.80;99.90;;;;;;4927562;28;20087;-77
2022/04/03 08:20:19;;;;;;;9.68;1.40;;;8.70;99.90;;;;;;4958798;28;261762;-77
2022/04/03 08:22:46;;;;;;;6.40;1.20;;;8.60;99.90;;;;;;4943215;28;20396;-77
2022/04/03 08:25:13;;;;;;;5.97;1.23;;;8.30;99.90;;;;;;4937038;28;267691;-77
2022/04/03 08:27:53;;;;;;;6.07;1.20;;;8.20;99.90;;;;;;4953352;28;20055;-78
2022/04/03 08:30:25;;;;;;;6.10;1.10;;;8.60;99.90;;;;;;4939454;28;33358;-78
2022/04/03 08:32:52;;;;;;;7.60;1.35;;;7.90;99.30;;;;;;4908402;28;20046;-77
2022/04/03 08:35:19;;;;;;;7.43;1.33;;;8.00;99.90;;;;;;4949876;28;156991;-77
2022/04/03 08:37:47;;;;;;;7.55;1.30;;;7.90;99.90;;;;;;4942906;28;20040;-77
2022/04/03 08:40:13;;;;;;;7.68;1.10;;;7.70;99.90;;;;;;4977292;28;223246;-78
2022/04/03 08:42:40;;;;;;;7.30;1.20;;;7.90;99.50;;;;;;4932127;28;20061;-78
2022/04/03 08:45:11;;;;;;;6.68;1.38;;;8.10;99.60;;;;;;4958955;28;67356;-77
2022/04/03 08:47:45;;;;;;;6.80;1.05;;;8.20;98.90;;;;;;4964449;28;20054;-77
2022/04/03 08:50:12;;;;;;;7.60;1.25;;;8.00;99.70;;;;;;4965306;28;136969;-77
2022/04/03 08:52:42;;;;;;;6.60;1.30;;;7.60;99.30;;;;;;4940841;28;20042;-77
2022/04/03 08:55:09;;;;;;;5.95;1.30;;;7.30;99.90;;;;;;4940865;28;234134;-77
2022/04/03 08:57:35;;;;;;;12.32;1.98;;;7.00;99.90;;;;;;4942400;28;20138;-77
2022/04/03 09:00:02;;;;;;;6.43;1.20;;;6.90;99.90;;;;;;4908163;28;1104416;-77
2022/04/03 09:02:28;;;;;;;7.88;1.50;;;6.70;99.90;;;;;;4935605;28;20095;-77
2022/04/03 09:04:54;;;;;;;8.13;1.58;;;6.80;99.90;;;;;;4934792;28;165130;-76
2022/04/03 09:07:21;;;;;;;7.80;1.25;;;6.80;99.90;;;;;;4924355;28;20051;-75
2022/04/03 09:09:57;;;;;;;7.80;1.30;;;7.20;99.90;;;;;;4951124;28;116614;-76
2022/04/03 09:12:23;;;;;;;10.23;1.10;;;8.30;99.90;;;;;;4944951;28;20034;-76
2022/04/03 09:14:54;;;;;;;7.18;1.17;;;9.20;99.90;;;;;;4943951;28;26692;-77
2022/04/03 09:17:38;;;;;;;6.00;1.05;;;9.80;99.60;;;;;;4942345;28;20050;-77
2022/04/03 09:20:07;;;;;;;6.03;1.20;;;10.30;92.20;;;;;;4963784;28;202386;-77
2022/04/03 09:22:35;;;;;;;4.90;0.80;;;9.90;93.30;;;;;;4948881;28;20043;-77
2022/04/03 09:25:09;;;;;;;5.93;1.10;;;9.60;94.70;;;;;;4940848;28;138846;-77
2022/04/03 09:27:51;;;;;;;5.78;0.98;;;9.80;95.40;;;;;;4926676;28;20061;-77
2022/04/03 09:30:23;;;;;;;10.02;1.40;;;9.70;94.60;;;;;;4959592;28;225394;-77
2022/04/03 09:32:55;;;;;;;6.07;1.10;;;9.20;93.80;;;;;;4895834;28;20050;-77
2022/04/03 09:35:29;;;;;;;9.90;0.93;;;8.70;95.90;;;;;;4962488;28;156252;-77
2022/04/03 09:38:16;;;;;;;9.88;1.38;;;8.30;97.50;;;;;;4922789;28;20065;-76
2022/04/03 09:40:45;;;;;;;7.68;1.60;;;7.80;98.90;;;;;;4923125;28;90205;-76
2022/04/03 09:43:11;;;;;;;5.88;1.42;;;7.50;99.90;;;;;;4947092;28;20051;-77
2022/04/03 09:45:45;;;;;;;11.32;1.30;;;7.40;99.90;;;;;;4918354;28;214264;-76
2022/04/03 09:48:31;;;;;;;7.72;1.58;;;7.20;99.90;;;;;;4943706;28;20063;-76
2022/04/03 09:51:04;;;;;;;6.28;1.20;;;7.20;99.90;;;;;;4941165;28;128645;-76
2022/04/03 09:53:58;;;;;;;6.18;1.40;;;7.20;99.90;;;;;;4956463;28;20076;-76
2022/04/03 09:56:31;;;;;;;9.15;1.45;;;7.10;99.90;;;;;;4900837;28;20054;-76
2022/04/03 09:59:00;;;;;;;6.55;1.08;;;6.90;99.90;;;;;;4950977;28;246686;-76
2022/04/03 10:01:40;;;;;;;7.63;1.30;;;6.80;99.90;;;;;;4953721;28;20049;-76
2022/04/03 10:04:14;;;;;;;7.53;1.20;;;6.70;99.90;;;;;;4945645;28;259605;-76
2022/04/03 10:06:41;;;;;;;7.10;1.27;;;6.60;99.90;;;;;;4944018;28;20103;-75
2022/04/03 10:09:11;;;;;;;5.28;1.17;;;6.60;99.90;;;;;;4922708;28;270912;-75
2022/04/03 10:11:41;;;;;;;6.60;1.23;;;6.50;99.90;;;;;;4923501;28;20074;-76
2022/04/03 10:14:13;;;;;;;5.72;1.23;;;6.50;99.90;;;;;;4952366;28;267538;-76
2022/04/03 10:16:40;;;;;;;6.68;1.30;;;6.60;99.90;;;;;;4924443;28;20482;-75
2022/04/03 10:19:07;;;;;;;6.50;1.20;;;6.90;99.90;;;;;;4926939;28;251689;-75
2022/04/03 10:21:49;;;;;;;6.10;0.90;;;7.90;99.90;;;;;;4931991;28;20057;-76
2022/04/03 10:24:18;;;;;;;4.60;0.80;;;8.80;99.50;;;;;;4936757;28;217424;-76
2022/04/03 10:26:50;;;;;;;3.35;0.70;;;8.80;95.60;;;;;;4938248;28;20492;-77
2022/04/03 10:29:17;;;;;;;6.57;0.90;;;8.70;94.60;;;;;;4973501;28;31208;-77
2022/04/03 10:31:59;;;;;;;5.40;0.98;;;8.50;93.30;;;;;;4950522;28;20047;-76
2022/04/03 10:34:27;;;;;;;7.05;0.85;;;8.30;95.70;;;;;;4949688;28;227140;-77
2022/04/03 10:36:53;;;;;;;7.07;1.17;;;8.20;95.50;;;;;;4931964;28;20181;-77
2022/04/03 10:39:29;;;;;;;4.93;0.90;;;8.30;94.90;;;;;;4925300;28;172636;-76
2022/04/03 10:42:15;;;;;;;5.05;1.02;;;9.20;95.90;;;;;;4939919;28;20054;-76
2022/04/03 10:44:41;;;;;;;4.35;0.80;;;10.40;95.80;;;;;;4934422;28;180885;-76
2022/04/03 10:47:18;;;;;;;5.38;0.85;;;10.60;95.90;;;;;;4919985;28;20042;-76
2022/04/03 10:50:00;;;;;;;5.25;0.82;;;10.50;91.90;;;;;;4946073;28;194103;-76
2022/04/03 10:52:26;;;;;;;7.68;0.95;;;9.80;86.00;;;;;;4952774;28;20065;-76
2022/04/03 10:55:00;;;;;;;4.18;0.80;;;9.30;85.20;;;;;;4954735;28;25675;-77
2022/04/03 10:57:32;;;;;;;6.57;0.73;;;9.50;80.80;;;;;;4925429;28;20054;-76
2022/04/03 11:00:16;;;;;;;4.10;0.80;;;9.00;78.00;;;;;;4944091;28;244376;-76
2022/04/03 11:02:45;;;;;;;4.72;0.90;;;8.80;82.00;;;;;;4917794;28;20109;-77
2022/04/03 11:05:23;;;;;;;6.72;1.10;;;8.70;89.00;;;;;;4948614;28;128131;-76
2022/04/03 11:07:59;;;;;;;6.20;1.02;;;8.40;93.30;;;;;;4905408;28;20057;-75
2022/04/03 11:10:53;;;;;;;8.27;1.20;;;8.00;96.20;;;;;;4920819;28;241467;-76
2022/04/03 11:13:22;;;;;;;4.78;1.00;;;7.70;97.10;;;;;;4937326;28;21034;-76
2022/04/03 11:15:54;;;;;;;5.72;1.05;;;7.50;97.80;;;;;;4911750;28;89834;-76
2022/04/03 11:18:41;;;;;;;5.88;1.27;;;7.40;98.20;;;;;;4956377;28;20190;-77
2022/04/03 11:21:23;;;;;;;5.60;1.02;;;7.40;98.50;;;;;;4897199;28;237930;-76
2022/04/03 11:24:02;;;;;;;7.50;1.30;;;7.50;98.10;;;;;;4945265;28;268727;-75
2022/04/03 11:26:29;;;;;;;8.07;1.65;;;7.60;98.40;;;;;;4928013;28;20061;-75
2022/04/03 11:28:56;;;;;;;6.10;1.23;;;7.60;99.30;;;;;;4936016;28;268736;-76
2022/04/03 11:31:22;;;;;;;7.55;1.38;;;7.60;99.50;;;;;;4955770;28;20547;-75
2022/04/03 11:33:49;;;;;;;7.47;1.10;;;7.50;99.40;;;;;;4919699;28;256841;-76
2022/04/03 11:36:17;;;;;;;5.10;1.00;;;7.50;99.40;;;;;;4918539;28;20054;-76
2022/04/03 11:38:48;;;;;;;5.82;1.05;;;7.50;99.60;;;;;;4951129;28;20516;-75
2022/04/03 11:41:22;;;;;;;8.15;1.88;;;7.50;99.70;;;;;;4897253;28;20083;-75
2022/04/03 11:43:57;;;;;;;6.05;1.02;;;7.60;99.30;;;;;;4944258;28;243558;-75
2022/04/03 11:46:23;;;;;;;4.90;0.90;;;7.70;98.10;;;;;;4942977;28;20043;-76
2022/04/03 11:48:50;;;;;;;3.88;0.75;;;7.60;98.00;;;;;;4921258;28;255978;-75
2022/04/03 11:51:19;;;;;;;7.55;0.90;;;7.70;98.20;;;;;;4949198;28;20394;-75
2022/04/03 11:53:47;;;;;;;4.82;0.80;;;7.70;96.40;;;;;;4976238;28;20047;-76
2022/04/03 11:56:16;;;;;;;2.50;0.60;;;7.70;95.80;;;;;;4907473;28;260283;-75
2022/04/03 11:58:48;;;;;;;2.33;0.60;;;7.70;94.90;;;;;;4954878;28;20051;-76
2022/04/03 12:01:27;;;;;;;5.63;0.80;;;7.80;94.10;;;;;;4915051;28;20065;-75
2022/04/03 12:04:08;;;;;;;5.22;0.70;;;7.90;93.00;;;;;;4923535;28;266055;-74
2022/04/03 12:06:36;;;;;;;5.43;0.88;;;8.20;93.30;;;;;;4937185;28;20046;-76
2022/04/03 12:09:13;;;;;;;5.63;0.70;;;9.10;95.00;;;;;;4948115;28;254485;-76
2022/04/03 12:11:42;;;;;;;5.28;0.90;;;10.00;92.80;;;;;;4945216;28;20050;-75
2022/04/03 12:14:09;;;;;;;3.15;0.70;;;10.20;93.00;;;;;;4938559;28;264756;-76
2022/04/03 12:16:37;;;;;;;3.50;0.70;;;9.80;92.20;;;;;;4944318;28;20054;-76
2022/04/03 12:19:16;;;;;;;2.03;0.60;;;9.10;92.30;;;;;;4931396;28;264884;-76
2022/04/03 12:21:49;;;;;;;4.15;0.80;;;8.70;92.80;;;;;;4941049;28;20456;-75
2022/04/03 12:24:24;;;;;;;3.72;0.68;;;8.50;93.50;;;;;;4932277;28;131925;-75
2022/04/03 12:27:15;;;;;;;4.28;0.70;;;8.30;93.20;;;;;;4929806;28;20038;-76
2022/04/03 12:29:52;;;;;;;3.45;0.60;;;8.20;93.90;;;;;;4931895;28;139989;-75
2022/04/03 12:32:28;;;;;;;4.07;0.70;;;8.30;94.50;;;;;;4948184;28;20046;-76
2022/04/03 12:34:55;;;;;;;5.25;0.80;;;8.40;95.10;;;;;;4935815;28;264406;-75
2022/04/03 12:37:21;;;;;;;3.58;0.70;;;8.50;94.10;;;;;;4938018;28;20042;-76
2022/04/03 12:39:50;;;;;;;5.45;0.80;;;8.70;93.60;;;;;;4927131;28;157119;-75
2022/04/03 12:42:20;;;;;;;5.65;0.70;;;8.90;93.80;;;;;;4928266;28;20039;-75
2022/04/03 12:44:58;;;;;;;3.25;0.70;;;9.10;93.30;;;;;;4963820;28;224682;-76
2022/04/03 12:47:31;;;;;;;4.10;0.80;;;9.60;93.30;;;;;;4951157;28;20050;-69
2022/04/03 12:50:06;;;;;;;4.43;0.80;;;9.40;91.70;;;;;;4961546;28;199132;-75
2022/04/03 12:52:47;;;;;;;5.97;0.80;;;9.70;90.90;;;;;;4945799;28;20050;-76